sensor_id;sensor_type;location;lat;lon;timestamp;P1;durP1;ratioP1;P2;durP2;ratioP2
23702;SDS011;12030;50.376;8.762;2022-08-03T00:01:33;4.37;;;2.10;;
23702;SDS011;12030;50.376;8.762;2022-08-03T00:03:59;4.30;;;2.07;;
23702;SDS011;12030;50.376;8.762;2022-08-03T00:06:25;2.63;;;2.00;;
23702;SDS011;12030;50.376;8.762;2022-08-03T00:08:50;2.40;;;1.70;;
23702;SDS011;12030;50.376;8.762;2022-08-03T00:11:16;3.53;;;1.90;;
23702;SDS011;12030;50.376;8.762;2022-08-03T00:13:41;2.63;;;2.30;;
23702;SDS011;12030;50.376;8.762;2022-08-03T00:16:07;2.47;;;1.97;;
23702;SDS011;12030;50.376;8.762;2022-08-03T00:18:34;2.27;;;2.07;;
23702;SDS011;12030;50.376;8.762;2022-08-03T00:21:00;2.30;;;2.10;;
23702;SDS011;12030;50.376;8.762;2022-08-03T00:23:26;4.70;;;3.50;;
23702;SDS011;12030;50.376;8.762;2022-08-03T00:25:52;6.60;;;2.10;;
23702;SDS011;12030;50.376;8.762;2022-08-03T00:28:17;2.60;;;2.40;;
23702;SDS011;12030;50.376;8.762;2022-08-03T00:30:43;4.53;;;2.27;;
23702;SDS011;12030;50.376;8.762;2022-08-03T00:33:08;4.33;;;2.20;;
23702;SDS011;12030;50.376;8.762;2022-08-03T00:35:34;2.33;;;2.13;;
23702;SDS011;12030;50.376;8.762;2022-08-03T00:38:00;2.47;;;2.03;;
23702;SDS011;12030;50.376;8.762;2022-08-03T00:40:26;2.00;;;1.90;;
23702;SDS011;12030;50.376;8.762;2022-08-03T00:45:24;5.63;;;2.27;;
23702;SDS011;12030;50.376;8.762;2022-08-03T00:47:52;2.93;;;1.80;;
23702;SDS011;12030;50.376;8.762;2022-08-03T00:50:18;2.50;;;2.10;;
23702;SDS011;12030;50.376;8.762;2022-08-03T00:52:47;4.60;;;2.10;;
23702;SDS011;12030;50.376;8.762;2022-08-03T00:55:12;4.77;;;2.00;;
23702;SDS011;12030;50.376;8.762;2022-08-03T00:57:38;4.40;;;2.43;;
23702;SDS011;12030;50.376;8.762;2022-08-03T01:00:05;4.23;;;2.10;;
23702;SDS011;12030;50.376;8.762;2022-08-03T01:02:32;5.70;;;2.40;;
23702;SDS011;12030;50.376;8.762;2022-08-03T01:04:57;5.00;;;2.50;;
23702;SDS011;12030;50.376;8.762;2022-08-03T01:15:59;12.73;;;3.00;;
23702;SDS011;12030;50.376;8.762;2022-08-03T01:18:37;2.30;;;2.00;;
23702;SDS011;12030;50.376;8.762;2022-08-03T01:21:30;2.73;;;2.50;;
23702;SDS011;12030;50.376;8.762;2022-08-03T01:26:47;7.00;;;2.70;;
23702;SDS011;12030;50.376;8.762;2022-08-03T01:29:40;2.50;;;2.10;;
23702;SDS011;12030;50.376;8.762;2022-08-03T01:32:25;4.07;;;2.27;;
23702;SDS011;12030;50.376;8.762;2022-08-03T01:35:08;2.57;;;2.37;;
23702;SDS011;12030;50.376;8.762;2022-08-03T01:37:40;2.77;;;2.20;;
23702;SDS011;12030;50.376;8.762;2022-08-03T01:40:11;3.60;;;2.27;;
23702;SDS011;12030;50.376;8.762;2022-08-03T01:42:38;2.50;;;2.13;;
23702;SDS011;12030;50.376;8.762;2022-08-03T01:45:06;3.50;;;2.30;;
23702;SDS011;12030;50.376;8.762;2022-08-03T01:47:34;2.20;;;2.00;;
23702;SDS011;12030;50.376;8.762;2022-08-03T01:50:03;2.87;;;2.30;;
23702;SDS011;12030;50.376;8.762;2022-08-03T01:52:30;2.40;;;2.20;;
23702;SDS011;12030;50.376;8.762;2022-08-03T01:54:57;2.90;;;2.20;;
23702;SDS011;12030;50.376;8.762;2022-08-03T01:57:25;2.63;;;2.17;;
23702;SDS011;12030;50.376;8.762;2022-08-03T01:59:52;2.60;;;2.40;;
23702;SDS011;12030;50.376;8.762;2022-08-03T02:02:21;2.37;;;1.90;;
23702;SDS011;12030;50.376;8.762;2022-08-03T02:04:47;3.00;;;2.40;;
23702;SDS011;12030;50.376;8.762;2022-08-03T02:07:16;2.53;;;2.33;;
23702;SDS011;12030;50.376;8.762;2022-08-03T02:09:43;2.63;;;2.30;;
23702;SDS011;12030;50.376;8.762;2022-08-03T02:12:11;2.40;;;2.20;;
23702;SDS011;12030;50.376;8.762;2022-08-03T02:14:38;2.27;;;2.07;;
23702;SDS011;12030;50.376;8.762;2022-08-03T02:17:06;3.20;;;2.00;;
23702;SDS011;12030;50.376;8.762;2022-08-03T02:19:33;3.67;;;2.60;;
23702;SDS011;12030;50.376;8.762;2022-08-03T02:22:00;3.07;;;2.10;;
23702;SDS011;12030;50.376;8.762;2022-08-03T02:24:27;3.67;;;2.80;;
23702;SDS011;12030;50.376;8.762;2022-08-03T02:26:54;4.77;;;2.67;;
23702;SDS011;12030;50.376;8.762;2022-08-03T02:29:25;2.73;;;2.00;;
23702;SDS011;12030;50.376;8.762;2022-08-03T02:31:56;3.13;;;2.33;;
23702;SDS011;12030;50.376;8.762;2022-08-03T02:34:24;2.20;;;1.90;;
23702;SDS011;12030;50.376;8.762;2022-08-03T02:36:53;2.60;;;2.33;;
23702;SDS011;12030;50.376;8.762;2022-08-03T02:39:24;3.47;;;2.07;;
23702;SDS011;12030;50.376;8.762;2022-08-03T02:41:52;2.67;;;2.30;;
23702;SDS011;12030;50.376;8.762;2022-08-03T02:44:26;2.77;;;2.50;;
23702;SDS011;12030;50.376;8.762;2022-08-03T02:46:53;5.33;;;2.83;;
23702;SDS011;12030;50.376;8.762;2022-08-03T02:49:22;3.23;;;2.50;;
23702;SDS011;12030;50.376;8.762;2022-08-03T02:51:49;2.70;;;2.50;;
23702;SDS011;12030;50.376;8.762;2022-08-03T02:54:17;2.47;;;2.27;;
23702;SDS011;12030;50.376;8.762;2022-08-03T02:56:45;3.90;;;2.63;;
23702;SDS011;12030;50.376;8.762;2022-08-03T02:59:12;3.33;;;2.40;;
23702;SDS011;12030;50.376;8.762;2022-08-03T03:01:39;3.77;;;2.50;;
23702;SDS011;12030;50.376;8.762;2022-08-03T03:04:05;6.93;;;3.20;;
23702;SDS011;12030;50.376;8.762;2022-08-03T03:06:32;2.40;;;2.10;;
23702;SDS011;12030;50.376;8.762;2022-08-03T03:08:59;2.93;;;2.30;;
23702;SDS011;12030;50.376;8.762;2022-08-03T03:11:25;3.53;;;2.80;;
23702;SDS011;12030;50.376;8.762;2022-08-03T03:13:51;3.27;;;2.50;;
23702;SDS011;12030;50.376;8.762;2022-08-03T03:16:19;3.60;;;2.80;;
23702;SDS011;12030;50.376;8.762;2022-08-03T03:18:46;3.80;;;2.43;;
23702;SDS011;12030;50.376;8.762;2022-08-03T03:21:15;2.80;;;2.30;;
23702;SDS011;12030;50.376;8.762;2022-08-03T03:23:44;4.50;;;2.53;;
23702;SDS011;12030;50.376;8.762;2022-08-03T03:26:10;2.93;;;2.20;;
23702;SDS011;12030;50.376;8.762;2022-08-03T03:28:38;3.07;;;2.47;;
23702;SDS011;12030;50.376;8.762;2022-08-03T03:31:05;3.77;;;2.53;;
23702;SDS011;12030;50.376;8.762;2022-08-03T03:33:32;2.83;;;2.63;;
23702;SDS011;12030;50.376;8.762;2022-08-03T03:35:58;4.77;;;2.77;;
23702;SDS011;12030;50.376;8.762;2022-08-03T03:38:24;3.20;;;2.90;;
23702;SDS011;12030;50.376;8.762;2022-08-03T03:40:50;3.33;;;3.03;;
23702;SDS011;12030;50.376;8.762;2022-08-03T03:43:16;3.73;;;2.70;;
23702;SDS011;12030;50.376;8.762;2022-08-03T03:45:42;3.80;;;2.30;;
23702;SDS011;12030;50.376;8.762;2022-08-03T03:48:09;3.03;;;2.73;;
23702;SDS011;12030;50.376;8.762;2022-08-03T03:50:35;4.67;;;2.87;;
23702;SDS011;12030;50.376;8.762;2022-08-03T03:53:01;2.80;;;2.50;;
23702;SDS011;12030;50.376;8.762;2022-08-03T03:55:28;4.33;;;2.73;;
23702;SDS011;12030;50.376;8.762;2022-08-03T03:57:54;4.70;;;2.57;;
23702;SDS011;12030;50.376;8.762;2022-08-03T04:00:20;2.80;;;2.53;;
23702;SDS011;12030;50.376;8.762;2022-08-03T04:02:46;3.30;;;2.57;;
23702;SDS011;12030;50.376;8.762;2022-08-03T04:05:12;3.37;;;2.80;;
23702;SDS011;12030;50.376;8.762;2022-08-03T04:08:07;7.63;;;2.70;;
23702;SDS011;12030;50.376;8.762;2022-08-03T04:11:01;2.90;;;2.60;;
23702;SDS011;12030;50.376;8.762;2022-08-03T04:13:36;3.67;;;2.40;;
23702;SDS011;12030;50.376;8.762;2022-08-03T04:16:04;4.20;;;2.30;;
23702;SDS011;12030;50.376;8.762;2022-08-03T04:18:32;2.70;;;2.40;;
23702;SDS011;12030;50.376;8.762;2022-08-03T04:21:00;4.90;;;2.67;;
23702;SDS011;12030;50.376;8.762;2022-08-03T04:23:32;3.87;;;3.07;;
23702;SDS011;12030;50.376;8.762;2022-08-03T04:26:00;3.50;;;3.20;;
23702;SDS011;12030;50.376;8.762;2022-08-03T04:28:27;5.10;;;2.97;;
23702;SDS011;12030;50.376;8.762;2022-08-03T04:30:55;5.33;;;2.73;;
23702;SDS011;12030;50.376;8.762;2022-08-03T04:33:21;5.10;;;2.77;;
23702;SDS011;12030;50.376;8.762;2022-08-03T04:35:50;3.27;;;2.97;;
23702;SDS011;12030;50.376;8.762;2022-08-03T04:38:19;3.10;;;2.80;;
23702;SDS011;12030;50.376;8.762;2022-08-03T04:40:46;5.50;;;2.80;;
23702;SDS011;12030;50.376;8.762;2022-08-03T04:43:12;5.27;;;2.67;;
23702;SDS011;12030;50.376;8.762;2022-08-03T04:45:40;3.30;;;2.97;;
23702;SDS011;12030;50.376;8.762;2022-08-03T04:48:07;4.93;;;2.43;;
23702;SDS011;12030;50.376;8.762;2022-08-03T04:50:33;3.57;;;3.10;;
23702;SDS011;12030;50.376;8.762;2022-08-03T04:52:58;3.60;;;2.97;;
23702;SDS011;12030;50.376;8.762;2022-08-03T04:55:27;4.63;;;2.70;;
23702;SDS011;12030;50.376;8.762;2022-08-03T04:57:54;3.83;;;2.80;;
23702;SDS011;12030;50.376;8.762;2022-08-03T05:00:21;4.20;;;3.10;;
23702;SDS011;12030;50.376;8.762;2022-08-03T05:02:46;3.27;;;2.67;;
23702;SDS011;12030;50.376;8.762;2022-08-03T05:05:12;4.00;;;3.10;;
23702;SDS011;12030;50.376;8.762;2022-08-03T05:07:39;4.00;;;2.60;;
23702;SDS011;12030;50.376;8.762;2022-08-03T05:10:06;5.77;;;2.80;;
23702;SDS011;12030;50.376;8.762;2022-08-03T05:12:33;3.80;;;2.90;;
23702;SDS011;12030;50.376;8.762;2022-08-03T05:14:58;3.00;;;2.60;;
23702;SDS011;12030;50.376;8.762;2022-08-03T05:17:24;3.03;;;2.73;;
23702;SDS011;12030;50.376;8.762;2022-08-03T05:19:50;3.47;;;2.90;;
23702;SDS011;12030;50.376;8.762;2022-08-03T05:22:16;6.37;;;2.77;;
23702;SDS011;12030;50.376;8.762;2022-08-03T05:24:41;3.40;;;2.37;;
23702;SDS011;12030;50.376;8.762;2022-08-03T05:27:07;3.10;;;2.80;;
23702;SDS011;12030;50.376;8.762;2022-08-03T05:29:32;6.20;;;2.60;;
23702;SDS011;12030;50.376;8.762;2022-08-03T05:31:58;3.57;;;2.73;;
23702;SDS011;12030;50.376;8.762;2022-08-03T05:34:23;3.93;;;2.97;;
23702;SDS011;12030;50.376;8.762;2022-08-03T05:36:49;5.17;;;2.80;;
23702;SDS011;12030;50.376;8.762;2022-08-03T05:39:14;4.13;;;3.00;;
23702;SDS011;12030;50.376;8.762;2022-08-03T05:41:40;3.43;;;3.00;;
23702;SDS011;12030;50.376;8.762;2022-08-03T05:44:05;3.40;;;3.10;;
23702;SDS011;12030;50.376;8.762;2022-08-03T05:46:31;4.00;;;2.83;;
23702;SDS011;12030;50.376;8.762;2022-08-03T05:48:56;2.97;;;2.70;;
23702;SDS011;12030;50.376;8.762;2022-08-03T05:51:22;3.30;;;2.80;;
23702;SDS011;12030;50.376;8.762;2022-08-03T05:53:47;3.67;;;3.20;;
23702;SDS011;12030;50.376;8.762;2022-08-03T05:56:13;3.07;;;2.33;;
23702;SDS011;12030;50.376;8.762;2022-08-03T05:58:39;6.40;;;3.00;;
23702;SDS011;12030;50.376;8.762;2022-08-03T06:01:04;4.90;;;2.83;;
23702;SDS011;12030;50.376;8.762;2022-08-03T06:03:30;3.10;;;2.53;;
23702;SDS011;12030;50.376;8.762;2022-08-03T06:05:55;3.20;;;2.73;;
23702;SDS011;12030;50.376;8.762;2022-08-03T06:08:21;5.20;;;3.23;;
23702;SDS011;12030;50.376;8.762;2022-08-03T06:10:47;3.43;;;2.80;;
23702;SDS011;12030;50.376;8.762;2022-08-03T06:13:13;3.63;;;2.90;;
23702;SDS011;12030;50.376;8.762;2022-08-03T06:15:38;3.20;;;2.70;;
23702;SDS011;12030;50.376;8.762;2022-08-03T06:18:04;3.43;;;2.73;;
23702;SDS011;12030;50.376;8.762;2022-08-03T06:20:29;2.70;;;2.50;;
23702;SDS011;12030;50.376;8.762;2022-08-03T06:22:55;5.07;;;2.83;;
23702;SDS011;12030;50.376;8.762;2022-08-03T06:25:21;5.27;;;2.77;;
23702;SDS011;12030;50.376;8.762;2022-08-03T06:27:46;7.03;;;3.10;;
23702;SDS011;12030;50.376;8.762;2022-08-03T06:30:12;3.37;;;2.30;;
23702;SDS011;12030;50.376;8.762;2022-08-03T06:32:41;3.07;;;2.63;;
23702;SDS011;12030;50.376;8.762;2022-08-03T06:35:06;3.57;;;2.40;;
23702;SDS011;12030;50.376;8.762;2022-08-03T06:37:43;4.63;;;2.67;;
23702;SDS011;12030;50.376;8.762;2022-08-03T06:40:13;3.30;;;2.40;;
23702;SDS011;12030;50.376;8.762;2022-08-03T06:42:43;3.03;;;2.40;;
23702;SDS011;12030;50.376;8.762;2022-08-03T06:45:10;3.13;;;2.73;;
23702;SDS011;12030;50.376;8.762;2022-08-03T06:47:37;2.63;;;2.23;;
23702;SDS011;12030;50.376;8.762;2022-08-03T06:50:03;3.53;;;2.20;;
23702;SDS011;12030;50.376;8.762;2022-08-03T06:52:30;2.60;;;2.30;;
23702;SDS011;12030;50.376;8.762;2022-08-03T06:54:56;7.20;;;2.67;;
23702;SDS011;12030;50.376;8.762;2022-08-03T06:57:22;3.27;;;2.40;;
23702;SDS011;12030;50.376;8.762;2022-08-03T06:59:48;3.07;;;2.13;;
23702;SDS011;12030;50.376;8.762;2022-08-03T07:02:13;2.50;;;2.07;;
23702;SDS011;12030;50.376;8.762;2022-08-03T07:04:39;4.40;;;2.40;;
23702;SDS011;12030;50.376;8.762;2022-08-03T07:07:04;2.17;;;1.90;;
23702;SDS011;12030;50.376;8.762;2022-08-03T07:09:30;4.03;;;2.00;;
23702;SDS011;12030;50.376;8.762;2022-08-03T07:11:56;4.13;;;2.03;;
23702;SDS011;12030;50.376;8.762;2022-08-03T07:14:22;2.60;;;1.70;;
23702;SDS011;12030;50.376;8.762;2022-08-03T07:16:48;4.80;;;1.87;;
23702;SDS011;12030;50.376;8.762;2022-08-03T07:19:13;1.63;;;1.53;;
23702;SDS011;12030;50.376;8.762;2022-08-03T07:21:39;4.83;;;1.73;;
23702;SDS011;12030;50.376;8.762;2022-08-03T07:24:05;4.17;;;2.73;;
23702;SDS011;12030;50.376;8.762;2022-08-03T07:26:30;3.57;;;1.73;;
23702;SDS011;12030;50.376;8.762;2022-08-03T07:28:56;2.73;;;1.80;;
23702;SDS011;12030;50.376;8.762;2022-08-03T07:31:21;2.67;;;1.63;;
23702;SDS011;12030;50.376;8.762;2022-08-03T07:33:47;2.40;;;1.53;;
23702;SDS011;12030;50.376;8.762;2022-08-03T07:36:12;1.57;;;1.47;;
23702;SDS011;12030;50.376;8.762;2022-08-03T07:38:38;2.77;;;1.70;;
23702;SDS011;12030;50.376;8.762;2022-08-03T07:41:03;1.97;;;1.43;;
23702;SDS011;12030;50.376;8.762;2022-08-03T07:43:29;2.37;;;1.67;;
23702;SDS011;12030;50.376;8.762;2022-08-03T07:45:54;3.63;;;1.70;;
23702;SDS011;12030;50.376;8.762;2022-08-03T07:48:20;3.80;;;1.80;;
23702;SDS011;12030;50.376;8.762;2022-08-03T07:50:45;2.23;;;1.50;;
23702;SDS011;12030;50.376;8.762;2022-08-03T07:53:11;3.23;;;1.40;;
23702;SDS011;12030;50.376;8.762;2022-08-03T07:55:37;2.13;;;1.80;;
23702;SDS011;12030;50.376;8.762;2022-08-03T07:58:03;5.13;;;1.70;;
23702;SDS011;12030;50.376;8.762;2022-08-03T08:00:31;4.40;;;1.70;;
23702;SDS011;12030;50.376;8.762;2022-08-03T08:02:57;4.00;;;1.70;;
23702;SDS011;12030;50.376;8.762;2022-08-03T08:05:23;1.77;;;1.50;;
23702;SDS011;12030;50.376;8.762;2022-08-03T08:07:49;3.43;;;1.80;;
23702;SDS011;12030;50.376;8.762;2022-08-03T08:10:15;2.53;;;1.60;;
23702;SDS011;12030;50.376;8.762;2022-08-03T08:12:40;2.37;;;1.77;;
23702;SDS011;12030;50.376;8.762;2022-08-03T08:15:06;2.23;;;1.57;;
23702;SDS011;12030;50.376;8.762;2022-08-03T08:17:43;3.63;;;1.50;;
23702;SDS011;12030;50.376;8.762;2022-08-03T08:20:23;2.70;;;1.90;;
23702;SDS011;12030;50.376;8.762;2022-08-03T08:22:57;2.80;;;1.60;;
23702;SDS011;12030;50.376;8.762;2022-08-03T08:25:24;1.97;;;1.27;;
23702;SDS011;12030;50.376;8.762;2022-08-03T08:27:50;4.10;;;1.63;;
23702;SDS011;12030;50.376;8.762;2022-08-03T08:30:17;3.00;;;1.40;;
23702;SDS011;12030;50.376;8.762;2022-08-03T08:32:45;4.97;;;1.53;;
23702;SDS011;12030;50.376;8.762;2022-08-03T08:35:11;4.07;;;1.60;;
23702;SDS011;12030;50.376;8.762;2022-08-03T08:37:37;4.40;;;1.83;;
23702;SDS011;12030;50.376;8.762;2022-08-03T08:40:04;1.77;;;1.40;;
23702;SDS011;12030;50.376;8.762;2022-08-03T08:42:31;2.33;;;1.50;;
23702;SDS011;12030;50.376;8.762;2022-08-03T08:44:57;2.73;;;1.60;;
23702;SDS011;12030;50.376;8.762;2022-08-03T08:47:24;1.87;;;1.40;;
23702;SDS011;12030;50.376;8.762;2022-08-03T08:49:53;3.03;;;1.60;;
23702;SDS011;12030;50.376;8.762;2022-08-03T08:52:23;2.67;;;1.63;;
23702;SDS011;12030;50.376;8.762;2022-08-03T08:54:51;1.53;;;1.33;;
23702;SDS011;12030;50.376;8.762;2022-08-03T08:57:29;3.77;;;1.47;;
23702;SDS011;12030;50.376;8.762;2022-08-03T08:59:57;2.73;;;1.20;;
23702;SDS011;12030;50.376;8.762;2022-08-03T09:02:23;1.60;;;1.33;;
23702;SDS011;12030;50.376;8.762;2022-08-03T09:04:50;1.57;;;1.30;;
23702;SDS011;12030;50.376;8.762;2022-08-03T09:07:17;2.53;;;1.30;;
23702;SDS011;12030;50.376;8.762;2022-08-03T09:09:42;1.60;;;1.50;;
23702;SDS011;12030;50.376;8.762;2022-08-03T09:12:08;1.23;;;1.10;;
23702;SDS011;12030;50.376;8.762;2022-08-03T09:14:34;1.63;;;1.30;;
23702;SDS011;12030;50.376;8.762;2022-08-03T09:17:00;1.87;;;1.27;;
23702;SDS011;12030;50.376;8.762;2022-08-03T09:19:29;1.60;;;1.30;;
23702;SDS011;12030;50.376;8.762;2022-08-03T09:24:35;1.23;;;1.13;;
23702;SDS011;12030;50.376;8.762;2022-08-03T09:27:01;1.77;;;1.30;;
23702;SDS011;12030;50.376;8.762;2022-08-03T09:29:31;3.80;;;1.20;;
23702;SDS011;12030;50.376;8.762;2022-08-03T09:32:03;1.23;;;1.07;;
23702;SDS011;12030;50.376;8.762;2022-08-03T09:34:29;2.50;;;0.97;;
23702;SDS011;12030;50.376;8.762;2022-08-03T09:36:55;4.17;;;1.53;;
23702;SDS011;12030;50.376;8.762;2022-08-03T09:39:23;2.23;;;1.07;;
23702;SDS011;12030;50.376;8.762;2022-08-03T09:42:03;1.37;;;1.20;;
23702;SDS011;12030;50.376;8.762;2022-08-03T09:44:38;1.60;;;1.13;;
23702;SDS011;12030;50.376;8.762;2022-08-03T09:47:06;1.90;;;1.10;;
23702;SDS011;12030;50.376;8.762;2022-08-03T09:49:37;1.27;;;1.13;;
23702;SDS011;12030;50.376;8.762;2022-08-03T09:52:11;1.47;;;1.00;;
23702;SDS011;12030;50.376;8.762;2022-08-03T09:54:52;5.00;;;0.90;;
23702;SDS011;12030;50.376;8.762;2022-08-03T09:57:21;1.67;;;1.03;;
23702;SDS011;12030;50.376;8.762;2022-08-03T09:59:49;2.37;;;1.10;;
23702;SDS011;12030;50.376;8.762;2022-08-03T10:02:19;4.30;;;1.00;;
23702;SDS011;12030;50.376;8.762;2022-08-03T10:04:49;2.60;;;1.30;;
23702;SDS011;12030;50.376;8.762;2022-08-03T10:07:17;1.00;;;0.90;;
23702;SDS011;12030;50.376;8.762;2022-08-03T10:09:59;1.20;;;1.10;;
23702;SDS011;12030;50.376;8.762;2022-08-03T10:12:26;2.60;;;1.07;;
23702;SDS011;12030;50.376;8.762;2022-08-03T10:14:52;1.20;;;1.10;;
23702;SDS011;12030;50.376;8.762;2022-08-03T10:17:19;1.33;;;1.17;;
23702;SDS011;12030;50.376;8.762;2022-08-03T10:19:45;2.10;;;1.10;;
23702;SDS011;12030;50.376;8.762;2022-08-03T10:27:39;1.70;;;1.10;;
23702;SDS011;12030;50.376;8.762;2022-08-03T10:30:07;1.10;;;1.00;;
23702;SDS011;12030;50.376;8.762;2022-08-03T10:32:49;1.93;;;1.00;;
23702;SDS011;12030;50.376;8.762;2022-08-03T10:35:19;1.13;;;1.00;;
23702;SDS011;12030;50.376;8.762;2022-08-03T10:37:49;2.70;;;1.00;;
23702;SDS011;12030;50.376;8.762;2022-08-03T10:40:25;3.13;;;1.23;;
23702;SDS011;12030;50.376;8.762;2022-08-03T10:42:53;1.37;;;1.10;;
23702;SDS011;12030;50.376;8.762;2022-08-03T10:45:24;7.67;;;1.20;;
23702;SDS011;12030;50.376;8.762;2022-08-03T10:47:51;1.23;;;1.10;;
23702;SDS011;12030;50.376;8.762;2022-08-03T10:50:19;4.97;;;1.10;;
23702;SDS011;12030;50.376;8.762;2022-08-03T10:52:58;1.87;;;1.00;;
23702;SDS011;12030;50.376;8.762;2022-08-03T10:55:34;1.77;;;1.10;;
23702;SDS011;12030;50.376;8.762;2022-08-03T11:01:08;0.87;;;0.87;;
23702;SDS011;12030;50.376;8.762;2022-08-03T11:04:12;1.40;;;1.10;;
23702;SDS011;12030;50.376;8.762;2022-08-03T11:06:40;7.90;;;1.30;;
23702;SDS011;12030;50.376;8.762;2022-08-03T11:11:34;1.30;;;1.00;;
23702;SDS011;12030;50.376;8.762;2022-08-03T11:14:05;3.40;;;1.30;;
23702;SDS011;12030;50.376;8.762;2022-08-03T11:16:34;1.27;;;1.13;;
23702;SDS011;12030;50.376;8.762;2022-08-03T11:19:05;4.57;;;0.90;;
23702;SDS011;12030;50.376;8.762;2022-08-03T11:27:19;1.10;;;1.00;;
23702;SDS011;12030;50.376;8.762;2022-08-03T11:40:43;2.20;;;1.23;;
23702;SDS011;12030;50.376;8.762;2022-08-03T11:46:10;1.37;;;1.27;;
23702;SDS011;12030;50.376;8.762;2022-08-03T11:48:45;1.33;;;1.00;;
23702;SDS011;12030;50.376;8.762;2022-08-03T11:51:19;0.93;;;0.90;;
23702;SDS011;12030;50.376;8.762;2022-08-03T11:56:25;1.50;;;1.10;;
23702;SDS011;12030;50.376;8.762;2022-08-03T11:58:56;2.53;;;0.93;;
23702;SDS011;12030;50.376;8.762;2022-08-03T12:01:22;5.80;;;1.10;;
23702;SDS011;12030;50.376;8.762;2022-08-03T12:03:49;0.90;;;0.90;;
23702;SDS011;12030;50.376;8.762;2022-08-03T12:06:15;1.60;;;1.10;;
23702;SDS011;12030;50.376;8.762;2022-08-03T12:08:42;0.97;;;0.70;;
23702;SDS011;12030;50.376;8.762;2022-08-03T12:11:09;1.10;;;1.00;;
23702;SDS011;12030;50.376;8.762;2022-08-03T12:13:38;1.63;;;0.90;;
23702;SDS011;12030;50.376;8.762;2022-08-03T12:16:09;2.30;;;0.87;;
23702;SDS011;12030;50.376;8.762;2022-08-03T12:18:40;2.90;;;1.10;;
23702;SDS011;12030;50.376;8.762;2022-08-03T12:21:08;0.80;;;0.80;;
23702;SDS011;12030;50.376;8.762;2022-08-03T12:23:35;1.20;;;0.80;;
23702;SDS011;12030;50.376;8.762;2022-08-03T12:26:02;1.00;;;1.00;;
23702;SDS011;12030;50.376;8.762;2022-08-03T12:28:29;2.60;;;1.47;;
23702;SDS011;12030;50.376;8.762;2022-08-03T12:30:55;2.23;;;1.00;;
23702;SDS011;12030;50.376;8.762;2022-08-03T12:33:26;1.13;;;1.03;;
23702;SDS011;12030;50.376;8.762;2022-08-03T12:36:03;0.93;;;0.93;;
23702;SDS011;12030;50.376;8.762;2022-08-03T12:38:30;1.27;;;1.17;;
23702;SDS011;12030;50.376;8.762;2022-08-03T12:40:58;0.90;;;0.77;;
23702;SDS011;12030;50.376;8.762;2022-08-03T12:43:25;0.93;;;0.70;;
23702;SDS011;12030;50.376;8.762;2022-08-03T12:45:51;1.00;;;0.70;;
23702;SDS011;12030;50.376;8.762;2022-08-03T12:48:30;1.40;;;1.03;;
23702;SDS011;12030;50.376;8.762;2022-08-03T12:51:06;2.37;;;0.90;;
23702;SDS011;12030;50.376;8.762;2022-08-03T12:53:33;1.03;;;0.60;;
23702;SDS011;12030;50.376;8.762;2022-08-03T12:56:03;1.10;;;0.90;;
23702;SDS011;12030;50.376;8.762;2022-08-03T12:58:33;3.03;;;1.00;;
23702;SDS011;12030;50.376;8.762;2022-08-03T13:01:00;3.43;;;0.90;;
23702;SDS011;12030;50.376;8.762;2022-08-03T13:03:27;2.60;;;1.33;;
23702;SDS011;12030;50.376;8.762;2022-08-03T13:05:52;1.87;;;1.00;;
23702;SDS011;12030;50.376;8.762;2022-08-03T13:08:19;5.13;;;1.40;;
23702;SDS011;12030;50.376;8.762;2022-08-03T13:10:46;1.87;;;1.10;;
23702;SDS011;12030;50.376;8.762;2022-08-03T13:13:12;2.40;;;1.23;;
23702;SDS011;12030;50.376;8.762;2022-08-03T13:15:38;1.20;;;1.10;;
23702;SDS011;12030;50.376;8.762;2022-08-03T13:18:04;1.73;;;1.03;;
23702;SDS011;12030;50.376;8.762;2022-08-03T13:20:29;2.63;;;0.80;;
23702;SDS011;12030;50.376;8.762;2022-08-03T13:22:55;3.77;;;0.90;;
23702;SDS011;12030;50.376;8.762;2022-08-03T13:25:21;4.07;;;1.17;;
23702;SDS011;12030;50.376;8.762;2022-08-03T13:27:46;3.57;;;1.10;;
23702;SDS011;12030;50.376;8.762;2022-08-03T13:30:12;3.40;;;2.17;;
23702;SDS011;12030;50.376;8.762;2022-08-03T13:32:39;4.23;;;1.53;;
23702;SDS011;12030;50.376;8.762;2022-08-03T13:35:05;1.33;;;1.13;;
23702;SDS011;12030;50.376;8.762;2022-08-03T13:37:31;1.37;;;1.20;;
23702;SDS011;12030;50.376;8.762;2022-08-03T13:39:57;1.40;;;1.30;;
23702;SDS011;12030;50.376;8.762;2022-08-03T13:42:24;2.67;;;1.33;;
23702;SDS011;12030;50.376;8.762;2022-08-03T13:44:49;1.13;;;1.03;;
23702;SDS011;12030;50.376;8.762;2022-08-03T13:47:15;2.77;;;2.20;;
23702;SDS011;12030;50.376;8.762;2022-08-03T13:49:41;1.23;;;1.00;;
23702;SDS011;12030;50.376;8.762;2022-08-03T13:52:06;1.63;;;1.10;;
23702;SDS011;12030;50.376;8.762;2022-08-03T13:54:32;1.60;;;1.30;;
23702;SDS011;12030;50.376;8.762;2022-08-03T13:56:58;1.47;;;1.20;;
23702;SDS011;12030;50.376;8.762;2022-08-03T13:59:24;1.83;;;1.40;;
23702;SDS011;12030;50.376;8.762;2022-08-03T14:01:51;2.13;;;1.60;;
23702;SDS011;12030;50.376;8.762;2022-08-03T14:04:17;1.20;;;1.10;;
23702;SDS011;12030;50.376;8.762;2022-08-03T14:06:43;1.20;;;1.10;;
23702;SDS011;12030;50.376;8.762;2022-08-03T14:09:09;1.10;;;1.00;;
23702;SDS011;12030;50.376;8.762;2022-08-03T14:11:39;2.87;;;1.27;;
23702;SDS011;12030;50.376;8.762;2022-08-03T14:14:05;4.63;;;2.07;;
23702;SDS011;12030;50.376;8.762;2022-08-03T14:16:30;1.47;;;1.33;;
23702;SDS011;12030;50.376;8.762;2022-08-03T14:18:56;2.17;;;1.50;;
23702;SDS011;12030;50.376;8.762;2022-08-03T14:21:21;2.93;;;1.30;;
23702;SDS011;12030;50.376;8.762;2022-08-03T14:23:47;1.20;;;1.10;;
23702;SDS011;12030;50.376;8.762;2022-08-03T14:26:13;1.83;;;1.30;;
23702;SDS011;12030;50.376;8.762;2022-08-03T14:28:38;2.40;;;1.30;;
23702;SDS011;12030;50.376;8.762;2022-08-03T14:31:05;2.13;;;1.20;;
23702;SDS011;12030;50.376;8.762;2022-08-03T14:33:30;2.97;;;1.53;;
23702;SDS011;12030;50.376;8.762;2022-08-03T14:35:56;2.27;;;1.00;;
23702;SDS011;12030;50.376;8.762;2022-08-03T14:38:22;1.10;;;1.00;;
23702;SDS011;12030;50.376;8.762;2022-08-03T14:40:48;1.20;;;1.10;;
23702;SDS011;12030;50.376;8.762;2022-08-03T14:43:14;4.97;;;1.13;;
23702;SDS011;12030;50.376;8.762;2022-08-03T14:45:41;1.37;;;1.20;;
23702;SDS011;12030;50.376;8.762;2022-08-03T14:48:07;1.40;;;1.03;;
23702;SDS011;12030;50.376;8.762;2022-08-03T14:50:33;2.07;;;1.23;;
23702;SDS011;12030;50.376;8.762;2022-08-03T14:52:58;2.93;;;1.40;;
23702;SDS011;12030;50.376;8.762;2022-08-03T14:55:24;1.67;;;1.30;;
23702;SDS011;12030;50.376;8.762;2022-08-03T14:57:49;3.67;;;0.90;;
23702;SDS011;12030;50.376;8.762;2022-08-03T15:00:15;1.77;;;1.30;;
23702;SDS011;12030;50.376;8.762;2022-08-03T15:02:40;4.10;;;1.00;;
23702;SDS011;12030;50.376;8.762;2022-08-03T15:05:06;2.78;;;1.50;;
23702;SDS011;12030;50.376;8.762;2022-08-03T15:07:32;2.10;;;1.30;;
23702;SDS011;12030;50.376;8.762;2022-08-03T15:09:58;1.77;;;1.13;;
23702;SDS011;12030;50.376;8.762;2022-08-03T15:12:24;1.83;;;1.50;;
23702;SDS011;12030;50.376;8.762;2022-08-03T15:14:49;2.33;;;1.50;;
23702;SDS011;12030;50.376;8.762;2022-08-03T15:17:15;1.90;;;1.20;;
23702;SDS011;12030;50.376;8.762;2022-08-03T15:19:41;2.63;;;1.10;;
23702;SDS011;12030;50.376;8.762;2022-08-03T15:22:06;1.27;;;1.13;;
23702;SDS011;12030;50.376;8.762;2022-08-03T15:24:32;1.57;;;1.30;;
23702;SDS011;12030;50.376;8.762;2022-08-03T15:26:57;1.20;;;1.10;;
23702;SDS011;12030;50.376;8.762;2022-08-03T15:29:23;1.20;;;0.93;;
23702;SDS011;12030;50.376;8.762;2022-08-03T15:31:48;1.80;;;1.10;;
23702;SDS011;12030;50.376;8.762;2022-08-03T15:34:14;1.30;;;1.10;;
23702;SDS011;12030;50.376;8.762;2022-08-03T15:36:40;2.40;;;1.10;;
23702;SDS011;12030;50.376;8.762;2022-08-03T15:39:05;2.38;;;1.30;;
23702;SDS011;12030;50.376;8.762;2022-08-03T15:41:31;2.23;;;1.10;;